sensor_id;sensor_type;location;lat;lon;timestamp;pressure;altitude;pressure_sealevel;temperature;humidity
59419;BME280;45224;50.904;6.038;2023-04-09T00:01:07;100702.88;;;9.77;82.04
59419;BME280;45224;50.904;6.038;2023-04-09T00:02:38;100699.38;;;9.73;81.36
59419;BME280;45224;50.904;6.038;2023-04-09T00:04:08;100695.03;;;9.69;81.99
59419;BME280;45224;50.904;6.038;2023-04-09T00:05:39;100699.25;;;9.67;82.24
59419;BME280;45224;50.904;6.038;2023-04-09T00:07:10;100692.34;;;9.64;82.20
59419;BME280;45224;50.904;6.038;2023-04-09T00:08:40;100698.38;;;9.65;82.14
59419;BME280;45224;50.904;6.038;2023-04-09T00:10:11;100702.59;;;9.60;82.31
59419;BME280;45224;50.904;6.038;2023-04-09T00:11:41;100700.88;;;9.60;82.00
59419;BME280;45224;50.904;6.038;2023-04-09T00:13:12;100692.13;;;9.52;82.00
59419;BME280;45224;50.904;6.038;2023-04-09T00:14:42;100694.72;;;9.54;81.50
59419;BME280;45224;50.904;6.038;2023-04-09T00:16:13;100695.53;;;9.51;82.10
59419;BME280;45224;50.904;6.038;2023-04-09T00:17:43;100693.78;;;9.48;81.89
59419;BME280;45224;50.904;6.038;2023-04-09T00:19:14;100695.50;;;9.48;81.90
59419;BME280;45224;50.904;6.038;2023-04-09T00:20:44;100683.31;;;9.42;81.57
59419;BME280;45224;50.904;6.038;2023-04-09T00:22:15;100688.44;;;9.39;82.27
59419;BME280;45224;50.904;6.038;2023-04-09T00:23:45;100686.56;;;9.30;82.95
59419;BME280;45224;50.904;6.038;2023-04-09T00:25:16;100683.06;;;9.27;82.49
59419;BME280;45224;50.904;6.038;2023-04-09T00:26:46;100686.56;;;9.30;82.36
59419;BME280;45224;50.904;6.038;2023-04-09T00:28:18;100685.66;;;9.30;82.59
59419;BME280;45224;50.904;6.038;2023-04-09T00:29:48;100682.28;;;9.32;82.78
59419;BME280;45224;50.904;6.038;2023-04-09T00:31:19;100677.88;;;9.28;83.13
59419;BME280;45224;50.904;6.038;2023-04-09T00:32:49;100673.56;;;9.26;83.60
59419;BME280;45224;50.904;6.038;2023-04-09T00:34:20;100681.34;;;9.27;83.33
59419;BME280;45224;50.904;6.038;2023-04-09T00:35:50;100676.94;;;9.23;83.74
59419;BME280;45224;50.904;6.038;2023-04-09T00:37:21;100674.28;;;9.20;84.15
59419;BME280;45224;50.904;6.038;2023-04-09T00:38:52;100682.13;;;9.25;84.21
59419;BME280;45224;50.904;6.038;2023-04-09T00:40:23;100679.38;;;9.17;84.51
59419;BME280;45224;50.904;6.038;2023-04-09T00:41:57;100678.59;;;9.20;84.15
59419;BME280;45224;50.904;6.038;2023-04-09T00:43:28;100681.22;;;9.21;84.20
59419;BME280;45224;50.904;6.038;2023-04-09T00:44:59;100679.44;;;9.20;84.38
59419;BME280;45224;50.904;6.038;2023-04-09T00:46:30;100685.47;;;9.19;84.05
59419;BME280;45224;50.904;6.038;2023-04-09T00:48:01;100679.38;;;9.17;83.86
59419;BME280;45224;50.904;6.038;2023-04-09T00:49:32;100679.44;;;9.20;83.82
59419;BME280;45224;50.904;6.038;2023-04-09T00:51:03;100682.91;;;9.19;83.50
59419;BME280;45224;50.904;6.038;2023-04-09T00:52:33;100680.28;;;9.18;83.67
59419;BME280;45224;50.904;6.038;2023-04-09T00:54:04;100670.69;;;9.12;84.06
59419;BME280;45224;50.904;6.038;2023-04-09T00:55:35;100683.59;;;9.12;84.38
59419;BME280;45224;50.904;6.038;2023-04-09T00:57:05;100676.75;;;9.12;84.14
59419;BME280;45224;50.904;6.038;2023-04-09T00:58:36;100676.63;;;9.06;84.24
59419;BME280;45224;50.904;6.038;2023-04-09T01:00:07;100674.81;;;9.02;84.42
59419;BME280;45224;50.904;6.038;2023-04-09T01:01:37;100679.09;;;9.02;84.51
59419;BME280;45224;50.904;6.038;2023-04-09T01:03:08;100680.84;;;9.03;84.14
59419;BME280;45224;50.904;6.038;2023-04-09T01:04:40;100679.09;;;9.02;84.07
59419;BME280;45224;50.904;6.038;2023-04-09T01:06:38;100682.53;;;9.02;84.43
59419;BME280;45224;50.904;6.038;2023-04-09T01:10:18;100678.13;;;8.97;84.66
59419;BME280;45224;50.904;6.038;2023-04-09T01:12:29;100672.06;;;8.94;85.05
59419;BME280;45224;50.904;6.038;2023-04-09T01:14:11;100678.91;;;8.92;84.62
59419;BME280;45224;50.904;6.038;2023-04-09T01:15:54;100670.28;;;8.90;84.59
59419;BME280;45224;50.904;6.038;2023-04-09T01:19:38;100657.13;;;8.80;85.68
59419;BME280;45224;50.904;6.038;2023-04-09T01:21:13;100661.38;;;8.76;85.85
59419;BME280;45224;50.904;6.038;2023-04-09T01:24:35;100660.50;;;8.75;85.62
59419;BME280;45224;50.904;6.038;2023-04-09T01:26:20;100668.22;;;8.74;85.59
59419;BME280;45224;50.904;6.038;2023-04-09T01:28:45;100664.69;;;8.72;85.50
59419;BME280;45224;50.904;6.038;2023-04-09T01:29:57;100662.97;;;8.71;85.45
59419;BME280;45224;50.904;6.038;2023-04-09T01:31:33;100661.31;;;8.73;85.41
59419;BME280;45224;50.904;6.038;2023-04-09T01:33:05;100655.25;;;8.71;85.48
59419;BME280;45224;50.904;6.038;2023-04-09T01:34:36;100656.06;;;8.70;85.02
59419;BME280;45224;50.904;6.038;2023-04-09T01:36:08;100654.34;;;8.70;84.66
59419;BME280;45224;50.904;6.038;2023-04-09T01:37:40;100659.50;;;8.70;84.77
59419;BME280;45224;50.904;6.038;2023-04-09T01:39:11;100661.09;;;8.64;85.58
59419;BME280;45224;50.904;6.038;2023-04-09T01:40:41;100661.03;;;8.61;85.35
59419;BME280;45224;50.904;6.038;2023-04-09T01:42:14;100664.47;;;8.59;85.17
59419;BME280;45224;50.904;6.038;2023-04-09T01:43:45;100659.22;;;8.56;85.44
59419;BME280;45224;50.904;6.038;2023-04-09T01:45:16;100659.16;;;8.53;85.09
59419;BME280;45224;50.904;6.038;2023-04-09T01:46:48;100652.19;;;8.49;85.04
59419;BME280;45224;50.904;6.038;2023-04-09T01:48:19;100663.34;;;8.48;85.07
59419;BME280;45224;50.904;6.038;2023-04-09T01:49:50;100652.88;;;8.42;85.92
59419;BME280;45224;50.904;6.038;2023-04-09T01:51:21;100651.97;;;8.40;85.71
59419;BME280;45224;50.904;6.038;2023-04-09T01:52:52;100647.56;;;8.36;85.68
59419;BME280;45224;50.904;6.038;2023-04-09T01:54:22;100638.91;;;8.32;85.60
59419;BME280;45224;50.904;6.038;2023-04-09T01:55:54;100638.03;;;8.32;85.88
59419;BME280;45224;50.904;6.038;2023-04-09T01:57:25;100644.03;;;8.31;85.94
59419;BME280;45224;50.904;6.038;2023-04-09T01:58:56;100641.44;;;8.31;85.51
59419;BME280;45224;50.904;6.038;2023-04-09T02:00:34;100641.44;;;8.31;86.08
59419;BME280;45224;50.904;6.038;2023-04-09T02:02:11;100643.09;;;8.27;86.43
59419;BME280;45224;50.904;6.038;2023-04-09T02:03:53;100631.84;;;8.23;85.93
59419;BME280;45224;50.904;6.038;2023-04-09T02:05:28;100636.97;;;8.22;85.68
59419;BME280;45224;50.904;6.038;2023-04-09T02:08:46;100632.53;;;8.16;86.19
59419;BME280;45224;50.904;6.038;2023-04-09T02:10:18;100641.94;;;8.14;85.90
59419;BME280;45224;50.904;6.038;2023-04-09T02:11:49;100639.31;;;8.13;85.77
59419;BME280;45224;50.904;6.038;2023-04-09T02:13:22;100636.63;;;8.08;86.20
59419;BME280;45224;50.904;6.038;2023-04-09T02:14:54;100637.41;;;8.05;86.07
59419;BME280;45224;50.904;6.038;2023-04-09T02:16:25;100636.50;;;8.03;86.13
59419;BME280;45224;50.904;6.038;2023-04-09T02:17:57;100635.56;;;8.00;86.64
59419;BME280;45224;50.904;6.038;2023-04-09T02:19:41;100635.56;;;8.00;86.27
59419;BME280;45224;50.904;6.038;2023-04-09T02:21:12;100642.44;;;7.99;86.24
59419;BME280;45224;50.904;6.038;2023-04-09T02:22:43;100636.31;;;7.96;86.57
59419;BME280;45224;50.904;6.038;2023-04-09T02:24:14;100641.44;;;7.94;86.62
59419;BME280;45224;50.904;6.038;2023-04-09T02:25:44;100635.34;;;7.91;86.15
59419;BME280;45224;50.904;6.038;2023-04-09T02:27:15;100634.44;;;7.89;86.28
59419;BME280;45224;50.904;6.038;2023-04-09T02:28:46;100635.19;;;7.84;nan
59419;BME280;45224;50.904;6.038;2023-04-09T02:30:16;100636.03;;;7.83;86.39
59419;BME280;45224;50.904;6.038;2023-04-09T02:31:46;100636.88;;;7.82;86.65
59419;BME280;45224;50.904;6.038;2023-04-09T02:33:17;100633.31;;;7.77;87.58
59419;BME280;45224;50.904;6.038;2023-04-09T02:34:48;100629.81;;;7.74;87.63
59419;BME280;45224;50.904;6.038;2023-04-09T02:36:18;100629.84;;;7.75;87.35
59419;BME280;45224;50.904;6.038;2023-04-09T02:37:49;100628.09;;;7.74;87.38
59419;BME280;45224;50.904;6.038;2023-04-09T02:39:19;100624.53;;;7.69;87.27
59419;BME280;45224;50.904;6.038;2023-04-09T02:40:50;100626.25;;;7.70;87.24
59419;BME280;45224;50.904;6.038;2023-04-09T02:42:20;100623.72;;;7.72;86.66
59419;BME280;45224;50.904;6.038;2023-04-09T02:43:51;100620.19;;;7.68;86.90
59419;BME280;45224;50.904;6.038;2023-04-09T02:45:21;100623.59;;;7.65;87.14
59419;BME280;45224;50.904;6.038;2023-04-09T02:46:52;100619.22;;;7.63;87.18
59419;BME280;45224;50.904;6.038;2023-04-09T02:48:22;100626.91;;;7.61;86.93
59419;BME280;45224;50.904;6.038;2023-04-09T02:49:53;100622.53;;;7.59;86.68
59419;BME280;45224;50.904;6.038;2023-04-09T02:51:23;100620.81;;;7.58;86.79
59419;BME280;45224;50.904;6.038;2023-04-09T02:52:54;100618.97;;;7.54;86.80
59419;BME280;45224;50.904;6.038;2023-04-09T02:54:25;100618.03;;;7.50;86.78
59419;BME280;45224;50.904;6.038;2023-04-09T02:55:55;100615.34;;;7.45;86.69
59419;BME280;45224;50.904;6.038;2023-04-09T02:57:26;100623.03;;;7.44;86.69
59419;BME280;45224;50.904;6.038;2023-04-09T02:58:56;100613.50;;;7.40;86.54
59419;BME280;45224;50.904;6.038;2023-04-09T03:00:27;100620.31;;;7.39;86.98
59419;BME280;45224;50.904;6.038;2023-04-09T03:01:58;100626.28;;;7.37;87.01
59419;BME280;45224;50.904;6.038;2023-04-09T03:03:29;100618.53;;;7.35;87.14
59419;BME280;45224;50.904;6.038;2023-04-09T03:05:00;100612.44;;;7.31;87.60
59419;BME280;45224;50.904;6.038;2023-04-09T03:06:31;100614.97;;;7.30;87.41
59419;BME280;45224;50.904;6.038;2023-04-09T03:08:01;100611.47;;;7.28;86.96
59419;BME280;45224;50.904;6.038;2023-04-09T03:09:32;100612.34;;;7.28;87.13
59419;BME280;45224;50.904;6.038;2023-04-09T03:11:02;100616.59;;;7.28;87.47
59419;BME280;45224;50.904;6.038;2023-04-09T03:12:33;100614.78;;;7.24;87.43
59419;BME280;45224;50.904;6.038;2023-04-09T03:14:03;100609.59;;;7.22;87.64
59419;BME280;45224;50.904;6.038;2023-04-09T03:15:34;100614.72;;;7.21;87.73
59419;BME280;45224;50.904;6.038;2023-04-09T03:17:04;100614.72;;;7.21;87.76
59419;BME280;45224;50.904;6.038;2023-04-09T03:18:35;100615.53;;;7.20;87.66
59419;BME280;45224;50.904;6.038;2023-04-09T03:20:06;100611.28;;;7.22;87.60
59419;BME280;45224;50.904;6.038;2023-04-09T03:21:41;100612.97;;;7.20;87.83
59419;BME280;45224;50.904;6.038;2023-04-09T03:23:11;100611.22;;;7.19;87.93
59419;BME280;45224;50.904;6.038;2023-04-09T03:24:46;100603.50;;;7.19;88.02
59419;BME280;45224;50.904;6.038;2023-04-09T03:26:17;100606.03;;;7.17;88.24
59419;BME280;45224;50.904;6.038;2023-04-09T03:27:51;100595.63;;;7.12;87.76
59419;BME280;45224;50.904;6.038;2023-04-09T03:29:30;100605.09;;;7.15;88.00
59419;BME280;45224;50.904;6.038;2023-04-09T03:31:02;100604.25;;;7.15;88.58
59419;BME280;45224;50.904;6.038;2023-04-09T03:32:38;100598.16;;;7.11;88.88
59419;BME280;45224;50.904;6.038;2023-04-09T03:34:08;100600.84;;;7.16;89.13
59419;BME280;45224;50.904;6.038;2023-04-09T03:35:39;100599.16;;;7.16;89.46
59419;BME280;45224;50.904;6.038;2023-04-09T03:37:11;100593.16;;;7.16;89.63
59419;BME280;45224;50.904;6.038;2023-04-09T03:38:41;100600.06;;;7.18;89.58
59419;BME280;45224;50.904;6.038;2023-04-09T03:40:24;100595.81;;;7.19;89.90
59419;BME280;45224;50.904;6.038;2023-04-09T03:41:58;100599.34;;;7.24;89.64
59419;BME280;45224;50.904;6.038;2023-04-09T03:43:32;100597.59;;;7.23;90.55
59419;BME280;45224;50.904;6.038;2023-04-09T03:45:04;100594.13;;;7.21;90.62
59419;BME280;45224;50.904;6.038;2023-04-09T03:46:40;100592.50;;;7.24;90.27
59419;BME280;45224;50.904;6.038;2023-04-09T03:48:13;100588.19;;;7.23;90.41
59419;BME280;45224;50.904;6.038;2023-04-09T03:49:44;100590.78;;;7.25;90.27
59419;BME280;45224;50.904;6.038;2023-04-09T03:51:23;100597.69;;;7.26;90.42
59419;BME280;45224;50.904;6.038;2023-04-09T03:52:59;100594.22;;;7.24;90.36
59419;BME280;45224;50.904;6.038;2023-04-09T03:54:32;100598.50;;;7.25;90.53
59419;BME280;45224;50.904;6.038;2023-04-09T03:56:04;100592.47;;;7.23;90.56
59419;BME280;45224;50.904;6.038;2023-04-09T03:57:37;100591.59;;;7.22;91.09
59419;BME280;45224;50.904;6.038;2023-04-09T03:59:11;100592.53;;;7.26;91.11
59419;BME280;45224;50.904;6.038;2023-04-09T04:00:44;100601.16;;;7.28;91.09
59419;BME280;45224;50.904;6.038;2023-04-09T04:02:38;100598.59;;;7.28;91.19
59419;BME280;45224;50.904;6.038;2023-04-09T04:04:11;100597.00;;;7.31;91.09
59419;BME280;45224;50.904;6.038;2023-04-09T04:05:46;100595.28;;;7.32;90.93
59419;BME280;45224;50.904;6.038;2023-04-09T04:07:19;100599.56;;;7.33;90.99
59419;BME280;45224;50.904;6.038;2023-04-09T04:08:58;100595.19;;;7.29;91.01
59419;BME280;45224;50.904;6.038;2023-04-09T04:10:37;100590.88;;;7.28;91.11
59419;BME280;45224;50.904;6.038;2023-04-09T04:12:08;100598.59;;;7.28;91.07
59419;BME280;45224;50.904;6.038;2023-04-09T04:14:01;100597.00;;;7.31;90.93
59419;BME280;45224;50.904;6.038;2023-04-09T04:15:32;100596.09;;;7.31;91.34
59419;BME280;45224;50.904;6.038;2023-04-09T04:17:03;100597.81;;;7.30;91.37
59419;BME280;45224;50.904;6.038;2023-04-09T04:18:35;100590.78;;;7.25;91.49
59419;BME280;45224;50.904;6.038;2023-04-09T04:20:07;100604.66;;;7.30;91.37
59419;BME280;45224;50.904;6.038;2023-04-09T04:21:45;100590.88;;;7.28;91.24
59419;BME280;45224;50.904;6.038;2023-04-09T04:23:16;100597.69;;;7.26;92.46
59419;BME280;45224;50.904;6.038;2023-04-09T04:24:58;100598.50;;;7.25;93.51
59419;BME280;45224;50.904;6.038;2023-04-09T04:26:29;100599.34;;;7.24;93.45
59419;BME280;45224;50.904;6.038;2023-04-09T04:28:00;100594.13;;;7.21;93.24
59419;BME280;45224;50.904;6.038;2023-04-09T04:29:39;100587.41;;;7.26;92.83
59419;BME280;45224;50.904;6.038;2023-04-09T04:31:23;100596.66;;;7.19;93.78
59419;BME280;45224;50.904;6.038;2023-04-09T04:32:54;100602.06;;;7.28;92.55
59419;BME280;45224;50.904;6.038;2023-04-09T04:34:25;100596.91;;;7.28;92.25
59419;BME280;45224;50.904;6.038;2023-04-09T04:36:08;100600.34;;;7.29;92.17
59419;BME280;45224;50.904;6.038;2023-04-09T04:37:43;100590.00;;;7.27;91.82
59419;BME280;45224;50.904;6.038;2023-04-09T04:39:14;100598.63;;;7.29;91.84
59419;BME280;45224;50.904;6.038;2023-04-09T04:41:05;100592.47;;;7.23;92.17
59419;BME280;45224;50.904;6.038;2023-04-09T04:42:38;100594.38;;;7.30;91.47
59419;BME280;45224;50.904;6.038;2023-04-09T04:44:14;100592.53;;;7.26;92.35
59419;BME280;45224;50.904;6.038;2023-04-09T04:45:45;100597.53;;;7.20;92.53
59419;BME280;45224;50.904;6.038;2023-04-09T04:47:17;100590.66;;;7.19;92.09
59419;BME280;45224;50.904;6.038;2023-04-09T04:48:48;100600.09;;;7.20;91.69
59419;BME280;45224;50.904;6.038;2023-04-09T04:50:19;100600.06;;;7.18;91.31
59419;BME280;45224;50.904;6.038;2023-04-09T04:52:11;100604.34;;;7.18;91.06
59419;BME280;45224;50.904;6.038;2023-04-09T04:53:46;100606.09;;;7.19;90.49
59419;BME280;45224;50.904;6.038;2023-04-09T04:55:18;100600.00;;;7.17;90.47
59419;BME280;45224;50.904;6.038;2023-04-09T04:56:49;100601.72;;;7.16;90.04
59419;BME280;45224;50.904;6.038;2023-04-09T04:58:34;100606.09;;;7.19;89.82
59419;BME280;45224;50.904;6.038;2023-04-09T05:00:05;100606.00;;;7.16;90.04
59419;BME280;45224;50.904;6.038;2023-04-09T05:01:36;100608.56;;;7.16;89.54
59419;BME280;45224;50.904;6.038;2023-04-09T05:03:11;100604.25;;;7.15;89.52
59419;BME280;45224;50.904;6.038;2023-04-09T05:05:02;100602.50;;;7.13;89.19
59419;BME280;45224;50.904;6.038;2023-04-09T05:06:39;100602.50;;;7.13;89.62
59419;BME280;45224;50.904;6.038;2023-04-09T05:08:14;100604.06;;;7.08;89.34
59419;BME280;45224;50.904;6.038;2023-04-09T05:09:45;100605.66;;;7.03;89.98
59419;BME280;45224;50.904;6.038;2023-04-09T05:11:15;100603.81;;;6.99;89.90
59419;BME280;45224;50.904;6.038;2023-04-09T05:12:49;100598.69;;;6.99;89.59
59419;BME280;45224;50.904;6.038;2023-04-09T05:14:33;100607.19;;;6.97;90.08
59419;BME280;45224;50.904;6.038;2023-04-09T05:16:04;100606.25;;;6.93;90.04
59419;BME280;45224;50.904;6.038;2023-04-09T05:17:36;100603.69;;;6.93;90.36
59419;BME280;45224;50.904;6.038;2023-04-09T05:19:08;100602.78;;;6.92;90.52
59419;BME280;45224;50.904;6.038;2023-04-09T05:20:41;100605.31;;;6.91;90.35
59419;BME280;45224;50.904;6.038;2023-04-09T05:22:12;100591.56;;;6.89;90.94
59419;BME280;45224;50.904;6.038;2023-04-09T05:23:43;100585.50;;;6.87;90.75
59419;BME280;45224;50.904;6.038;2023-04-09T05:25:13;100593.31;;;6.90;90.77
59419;BME280;45224;50.904;6.038;2023-04-09T05:26:46;100594.94;;;6.88;90.67
59419;BME280;45224;50.904;6.038;2023-04-09T05:28:16;100594.94;;;6.88;90.90
59419;BME280;45224;50.904;6.038;2023-04-09T05:29:48;100592.38;;;6.88;92.02
59419;BME280;45224;50.904;6.038;2023-04-09T05:31:18;100586.50;;;6.92;91.71
59419;BME280;45224;50.904;6.038;2023-04-09T05:33:15;100588.28;;;6.94;91.80
59419;BME280;45224;50.904;6.038;2023-04-09T05:34:46;100590.94;;;6.98;91.73
59419;BME280;45224;50.904;6.038;2023-04-09T05:36:18;100591.84;;;7.00;92.02
59419;BME280;45224;50.904;6.038;2023-04-09T05:37:48;100594.56;;;7.04;91.64
59419;BME280;45224;50.904;6.038;2023-04-09T05:39:19;100585.09;;;7.03;91.84
59419;BME280;45224;50.904;6.038;2023-04-09T05:40:50;100591.34;;;7.13;91.13
59419;BME280;45224;50.904;6.038;2023-04-09T05:42:20;100590.66;;;7.19;91.20
59419;BME280;45224;50.904;6.038;2023-04-09T05:44:14;100589.88;;;7.23;91.78
59419;BME280;45224;50.904;6.038;2023-04-09T05:45:45;100593.41;;;7.26;91.81
59419;BME280;45224;50.904;6.038;2023-04-09T05:47:15;100594.38;;;7.30;91.85
59419;BME280;45224;50.904;6.038;2023-04-09T05:49:00;100589.50;;;7.41;91.08
59419;BME280;45224;50.904;6.038;2023-04-09T05:50:32;100589.69;;;7.48;90.83
59419;BME280;45224;50.904;6.038;2023-04-09T05:52:02;100589.75;;;7.50;90.80
59419;BME280;45224;50.904;6.038;2023-04-09T05:53:35;100593.16;;;7.50;91.55
59419;BME280;45224;50.904;6.038;2023-04-09T05:55:06;100589.78;;;7.52;91.97
59419;BME280;45224;50.904;6.038;2023-04-09T05:56:56;100588.19;;;7.57;92.44
59419;BME280;45224;50.904;6.038;2023-04-09T05:58:27;100596.84;;;7.60;92.16
59419;BME280;45224;50.904;6.038;2023-04-09T06:00:00;100591.81;;;7.65;91.41
59419;BME280;45224;50.904;6.038;2023-04-09T06:01:30;100598.84;;;7.71;91.56
59419;BME280;45224;50.904;6.038;2023-04-09T06:03:01;100593.41;;;7.60;92.69
59419;BME280;45224;50.904;6.038;2023-04-09T06:04:31;100593.50;;;7.63;93.24
59419;BME280;45224;50.904;6.038;2023-04-09T06:06:04;100594.63;;;7.74;92.59
59419;BME280;45224;50.904;6.038;2023-04-09T06:07:34;100595.59;;;7.79;92.31
59419;BME280;45224;50.904;6.038;2023-04-09T06:09:05;100600.13;;;7.88;92.42
59419;BME280;45224;50.904;6.038;2023-04-09T06:10:35;100597.59;;;7.91;92.08
59419;BME280;45224;50.904;6.038;2023-04-09T06:12:06;100587.53;;;8.02;91.79
59419;BME280;45224;50.904;6.038;2023-04-09T06:13:37;100604.03;;;8.10;91.54
59419;BME280;45224;50.904;6.038;2023-04-09T06:15:07;100599.94;;;8.18;91.00
59419;BME280;45224;50.904;6.038;2023-04-09T06:16:38;100594.09;;;8.26;90.37
59419;BME280;45224;50.904;6.038;2023-04-09T06:18:08;100592.53;;;8.32;90.12
59419;BME280;45224;50.904;6.038;2023-04-09T06:19:39;100599.47;;;8.36;90.27
59419;BME280;45224;50.904;6.038;2023-04-09T06:21:09;100598.84;;;8.45;90.04
59419;BME280;45224;50.904;6.038;2023-04-09T06:22:40;100593.84;;;8.51;89.60
59419;BME280;45224;50.904;6.038;2023-04-09T06:24:10;100599.13;;;8.57;89.68
59419;BME280;45224;50.904;6.038;2023-04-09T06:25:41;100601.91;;;8.68;89.21
59419;BME280;45224;50.904;6.038;2023-04-09T06:27:11;100604.69;;;8.77;88.96
59419;BME280;45224;50.904;6.038;2023-04-09T06:28:42;100609.19;;;8.89;88.27
59419;BME280;45224;50.904;6.038;2023-04-09T06:30:13;100608.44;;;8.93;87.80
59419;BME280;45224;50.904;6.038;2023-04-09T06:31:43;100604.91;;;8.88;87.78
59419;BME280;45224;50.904;6.038;2023-04-09T06:33:14;100606.88;;;9.02;87.60
59419;BME280;45224;50.904;6.038;2023-04-09T06:34:44;100606.25;;;9.15;87.00
59419;BME280;45224;50.904;6.038;2023-04-09T06:36:14;100608.63;;;9.03;86.18
59419;BME280;45224;50.904;6.038;2023-04-09T06:37:45;100605.31;;;9.10;86.29
59419;BME280;45224;50.904;6.038;2023-04-09T06:39:15;100605.31;;;9.10;85.58
59419;BME280;45224;50.904;6.038;2023-04-09T06:40:46;100604.31;;;9.03;86.26
59419;BME280;45224;50.904;6.038;2023-04-09T06:42:16;100615.63;;;9.10;85.57
59419;BME280;45224;50.904;6.038;2023-04-09T06:44:00;100608.44;;;8.93;86.41
59419;BME280;45224;50.904;6.038;2023-04-09T06:45:31;100617.19;;;9.02;nan
59419;BME280;45224;50.904;6.038;2023-04-09T06:47:02;100615.81;;;9.19;86.44
59419;BME280;45224;50.904;6.038;2023-04-09T06:48:33;100610.78;;;9.25;85.60
59419;BME280;45224;50.904;6.038;2023-04-09T06:50:03;100612.72;;;9.39;85.17
59419;BME280;45224;50.904;6.038;2023-04-09T06:51:34;100612.91;;;9.51;85.18
59419;BME280;45224;50.904;6.038;2023-04-09T06:53:05;100622.47;;;9.55;84.74
59419;BME280;45224;50.904;6.038;2023-04-09T06:54:36;100619.31;;;9.72;84.37
59419;BME280;45224;50.904;6.038;2023-04-09T06:56:06;100618.66;;;9.85;84.35
59419;BME280;45224;50.904;6.038;2023-04-09T06:57:37;100619.78;;;10.01;83.90
59419;BME280;45224;50.904;6.038;2023-04-09T06:59:08;100620.00;;;10.15;83.22
59419;BME280;45224;50.904;6.038;2023-04-09T07:00:38;100618.28;;;10.17;81.59
59419;BME280;45224;50.904;6.038;2023-04-09T07:02:09;100628.94;;;10.35;81.79
59419;BME280;45224;50.904;6.038;2023-04-09T07:03:39;100618.66;;;10.41;81.19
59419;BME280;45224;50.904;6.038;2023-04-09T07:05:10;100614.16;;;10.28;79.92
59419;BME280;45224;50.904;6.038;2023-04-09T07:06:41;100615.19;;;10.39;79.79
59419;BME280;45224;50.904;6.038;2023-04-09T07:08:11;100618.75;;;10.48;79.57
59419;BME280;45224;50.904;6.038;2023-04-09T07:09:42;100617.13;;;10.56;78.30
59419;BME280;45224;50.904;6.038;2023-04-09T07:11:12;100616.47;;;10.69;77.78
59419;BME280;45224;50.904;6.038;2023-04-09T07:12:46;100623.22;;;10.58;77.71
59419;BME280;45224;50.904;6.038;2023-04-09T07:14:16;100625.06;;;10.68;78.70
59419;BME280;45224;50.904;6.038;2023-04-09T07:15:47;100619.19;;;10.82;77.21
59419;BME280;45224;50.904;6.038;2023-04-09T07:17:17;100620.19;;;10.93;77.16
59419;BME280;45224;50.904;6.038;2023-04-09T07:18:48;100628.81;;;10.92;76.50
59419;BME280;45224;50.904;6.038;2023-04-09T07:20:18;100629.97;;;11.19;76.71
59419;BME280;45224;50.904;6.038;2023-04-09T07:21:48;100635.97;;;11.14;75.70
59419;BME280;45224;50.904;6.038;2023-04-09T07:23:20;100633.44;;;11.19;75.23
59419;BME280;45224;50.904;6.038;2023-04-09T07:24:50;100637.97;;;11.40;75.53
59419;BME280;45224;50.904;6.038;2023-04-09T07:26:24;100628.75;;;11.68;75.70
59419;BME280;45224;50.904;6.038;2023-04-09T07:27:54;100638.00;;;11.46;72.84
59419;BME280;45224;50.904;6.038;2023-04-09T07:29:25;100637.38;;;11.70;74.60
59419;BME280;45224;50.904;6.038;2023-04-09T07:30:56;100638.34;;;11.83;74.03
59419;BME280;45224;50.904;6.038;2023-04-09T07:32:26;100647.00;;;11.82;72.21
59419;BME280;45224;50.904;6.038;2023-04-09T07:33:57;100645.22;;;11.78;72.24
59419;BME280;45224;50.904;6.038;2023-04-09T07:35:28;100625.53;;;11.94;73.12
59419;BME280;45224;50.904;6.038;2023-04-09T07:36:58;100639.38;;;11.99;73.58
59419;BME280;45224;50.904;6.038;2023-04-09T07:38:29;100637.69;;;12.04;70.71
59419;BME280;45224;50.904;6.038;2023-04-09T07:39:59;100643.69;;;11.96;71.08
59419;BME280;45224;50.904;6.038;2023-04-09T07:41:30;100647.88;;;11.84;71.64
59419;BME280;45224;50.904;6.038;2023-04-09T07:43:01;100642.03;;;12.07;71.21
59419;BME280;45224;50.904;6.038;2023-04-09T07:44:35;100640.28;;;12.01;70.92
59419;BME280;45224;50.904;6.038;2023-04-09T07:46:05;100645.47;;;12.06;71.15
59419;BME280;45224;50.904;6.038;2023-04-09T07:47:37;100642.03;;;12.07;70.98
59419;BME280;45224;50.904;6.038;2023-04-09T07:49:09;100642.97;;;12.15;70.65
59419;BME280;45224;50.904;6.038;2023-04-09T07:50:40;100643.09;;;12.31;71.26
59419;BME280;45224;50.904;6.038;2023-04-09T07:52:10;100642.19;;;12.29;70.78
59419;BME280;45224;50.904;6.038;2023-04-09T07:53:41;100638.88;;;12.47;69.95
59419;BME280;45224;50.904;6.038;2023-04-09T07:55:11;100642.38;;;12.56;70.01
59419;BME280;45224;50.904;6.038;2023-04-09T07:56:42;100638.16;;;12.83;69.46
59419;BME280;45224;50.904;6.038;2023-04-09T07:58:12;100646.00;;;12.95;68.07
59419;BME280;45224;50.904;6.038;2023-04-09T07:59:43;100635.66;;;13.08;66.87
59419;BME280;45224;50.904;6.038;2023-04-09T08:01:13;100634.84;;;13.18;65.73
59419;BME280;45224;50.904;6.038;2023-04-09T08:02:44;100637.44;;;13.21;65.62
59419;BME280;45224;50.904;6.038;2023-04-09T08:04:15;100646.19;;;13.54;65.34
59419;BME280;45224;50.904;6.038;2023-04-09T08:05:46;100638.41;;;13.66;65.41
59419;BME280;45224;50.904;6.038;2023-04-09T08:07:16;100641.03;;;13.71;64.71
59419;BME280;45224;50.904;6.038;2023-04-09T08:08:46;100644.50;;;13.81;62.87
59419;BME280;45224;50.904;6.038;2023-04-09T08:10:17;100648.81;;;13.91;62.79
59419;BME280;45224;50.904;6.038;2023-04-09T08:11:48;100641.88;;;14.13;63.17
59419;BME280;45224;50.904;6.038;2023-04-09T08:13:19;100645.34;;;14.24;62.78
59419;BME280;45224;50.904;6.038;2023-04-09T08:14:49;100644.44;;;14.29;60.83
59419;BME280;45224;50.904;6.038;2023-04-09T08:16:20;100642.69;;;14.48;60.47
59419;BME280;45224;50.904;6.038;2023-04-09T08:17:52;100644.38;;;14.67;59.89